Terminal Aerodrome Forecast
Issued by NWS Indianapolis, IN

Home | Current Version | Previous Version | Text Only | Print | Product List | Glossary On
Versions: 1 2 3 4 5 6 7 8 9 10 11 12 13 14 15 16 17 18 19 20 21 22 23 24 25
648
FTUS43 KIND 212022 AAD
TAFIND
TAF AMD
KIND 212022Z 2120/2224 VRB04KT P6SM TSRA BKN050CB OVC250
     FM212100 16003KT P6SM FEW050 BKN250
     FM220000 20005KT P6SM SCT200
     FM221200 22006KT P6SM -SHRA VCTS OVC080CB
     FM221500 25007KT P6SM -SHRA VCTS OVC030CB
     FM222200 28007KT P6SM BKN035=

USA.gov is the U.S. government's official web portal to all federal, state and local government web resources and services.